Promise City, IA

6:15 PM CST on February 01, 2015 (GMT -0600)
Knoxville Municipal | Change Station
CLOSE
Current Station
Airport
Location: Knoxville,
Elevation: 928 ft
Nearby Weather Stations
Active Advisory: Winter Storm Warning Active Notice: Record Report

Elev 928 ft 41.30 °N, 93.11 °W | Updated 20 minutes ago

Snow
Snow
16 °F
Feels Like -1 °F
N
18
Wind Variable Wind from North
Gusts 30 mph

Today
High -- | Low -- °F
--% Chance of Precip.
Yesterday
High -- | Low -- °F
Precip. -- in
7:22 AM 5:29 PM
Waxing Gibbous, 96% visible
Pressure 30.04 in
Visibility 1.8 miles
Clouds Mostly Cloudy 500 ft
Overcast 1400 ft
Windchill -1 °F
Dew Point 12 °F
Humidity 86%
Rainfall 0.14 in
Snow Depth Not available.
UV 0 out of 12
Pollen .10 out of 12
Air Quality Not available.
Flu Activity Not available.
METAR KOXV 012355Z AUTO 36016G26KT 1 3/4SM -SN BKN005 OVC014 M09/M11 A3004 RMK AO2

More Conditions Fewer Conditions

Pressure 30.04 in
Visibility 1.8 miles
Clouds Mostly Cloudy 500 ft
Overcast 1400 ft
Windchill -1 °F
Dew Point 12 °F
Humidity 86%
Rainfall 0.14 in
Snow Depth Not available.
UV 0 out of 12
Pollen .10 out of 12
Air Quality Not available.
Flu Activity Not available.
METAR KOXV 012355Z AUTO 36016G26KT 1 3/4SM -SN BKN005 OVC014 M09/M11 A3004 RMK AO2

More Conditions Fewer Conditions

10-Day Weather Forecast

Almanac

Astronomy

Feb. 01, 2015 Rise Set
Actual Time
Civil Twilight
Nautical Twilight
Astronomical Twilight
Moon
Length of Visible Light
Length of Day
Tomorrow will be .
, % of the Moon is Illuminated

Today's Extremes

State Highs State Lows

Community

WunderPhotos

Upload Photos

1,792,619 photos uploaded!

WunderBlogs® & News

Nearby

Air Quality

  Air Quality AQ Index Pollutant
Not available.

Snow Depth

Station Depth Elevation

Earthquake Activity

City Distance Mag. Time & Date
Minimum magnitude displayed is 2.5.

Coastal Water Temperatures

Place Temperature

Nearby Weather Stations